sensor_id;sensor_type;location;lat;lon;timestamp;P1;durP1;ratioP1;P2;durP2;ratioP2
66802;SDS011;53705;49.860;8.744;2023-02-28T00:06:34;3.60;;;1.05;;
66802;SDS011;53705;49.860;8.744;2023-02-28T00:09:01;2.80;;;0.80;;
66802;SDS011;53705;49.860;8.744;2023-02-28T00:11:29;3.00;;;1.02;;
66802;SDS011;53705;49.860;8.744;2023-02-28T00:13:56;4.18;;;1.50;;
66802;SDS011;53705;49.860;8.744;2023-02-28T00:16:22;4.57;;;1.80;;
66802;SDS011;53705;49.860;8.744;2023-02-28T00:18:49;3.88;;;1.25;;
66802;SDS011;53705;49.860;8.744;2023-02-28T00:21:16;2.75;;;1.38;;
66802;SDS011;53705;49.860;8.744;2023-02-28T00:23:43;2.45;;;1.10;;
66802;SDS011;53705;49.860;8.744;2023-02-28T00:26:10;3.08;;;1.30;;
66802;SDS011;53705;49.860;8.744;2023-02-28T00:28:39;3.65;;;1.10;;
66802;SDS011;53705;49.860;8.744;2023-02-28T00:31:06;5.20;;;1.45;;
66802;SDS011;53705;49.860;8.744;2023-02-28T00:33:34;3.03;;;1.05;;
66802;SDS011;53705;49.860;8.744;2023-02-28T00:36:02;3.67;;;1.48;;
66802;SDS011;53705;49.860;8.744;2023-02-28T00:38:29;3.78;;;1.38;;
66802;SDS011;53705;49.860;8.744;2023-02-28T00:40:56;3.47;;;1.58;;
66802;SDS011;53705;49.860;8.744;2023-02-28T00:43:24;4.45;;;1.23;;
66802;SDS011;53705;49.860;8.744;2023-02-28T00:45:52;4.82;;;1.48;;
66802;SDS011;53705;49.860;8.744;2023-02-28T00:48:18;3.97;;;1.05;;
66802;SDS011;53705;49.860;8.744;2023-02-28T00:50:48;5.70;;;1.45;;
66802;SDS011;53705;49.860;8.744;2023-02-28T00:53:14;3.42;;;1.25;;
66802;SDS011;53705;49.860;8.744;2023-02-28T00:55:41;3.70;;;1.38;;
66802;SDS011;53705;49.860;8.744;2023-02-28T00:58:09;4.75;;;1.17;;
66802;SDS011;53705;49.860;8.744;2023-02-28T01:00:36;3.50;;;1.17;;
66802;SDS011;53705;49.860;8.744;2023-02-28T01:03:04;4.47;;;1.52;;
66802;SDS011;53705;49.860;8.744;2023-02-28T01:05:30;4.93;;;1.33;;
66802;SDS011;53705;49.860;8.744;2023-02-28T01:07:57;3.47;;;0.98;;
66802;SDS011;53705;49.860;8.744;2023-02-28T01:10:24;4.82;;;1.38;;
66802;SDS011;53705;49.860;8.744;2023-02-28T01:12:51;4.18;;;2.30;;
66802;SDS011;53705;49.860;8.744;2023-02-28T01:15:18;3.42;;;1.40;;
66802;SDS011;53705;49.860;8.744;2023-02-28T01:17:44;3.22;;;0.95;;
66802;SDS011;53705;49.860;8.744;2023-02-28T01:20:12;5.30;;;2.08;;
66802;SDS011;53705;49.860;8.744;2023-02-28T01:22:40;3.85;;;1.27;;
66802;SDS011;53705;49.860;8.744;2023-02-28T01:25:07;3.42;;;1.15;;
66802;SDS011;53705;49.860;8.744;2023-02-28T01:27:34;4.30;;;0.80;;
66802;SDS011;53705;49.860;8.744;2023-02-28T01:30:01;3.60;;;1.33;;
66802;SDS011;53705;49.860;8.744;2023-02-28T01:32:28;4.28;;;1.55;;
66802;SDS011;53705;49.860;8.744;2023-02-28T01:34:54;4.30;;;1.58;;
66802;SDS011;53705;49.860;8.744;2023-02-28T01:37:23;6.93;;;1.48;;
66802;SDS011;53705;49.860;8.744;2023-02-28T01:39:50;3.15;;;1.48;;
66802;SDS011;53705;49.860;8.744;2023-02-28T01:42:19;3.88;;;1.42;;
66802;SDS011;53705;49.860;8.744;2023-02-28T01:45:00;4.55;;;1.45;;
66802;SDS011;53705;49.860;8.744;2023-02-28T01:47:30;2.75;;;0.80;;
66802;SDS011;53705;49.860;8.744;2023-02-28T01:49:59;2.95;;;1.40;;
66802;SDS011;53705;49.860;8.744;2023-02-28T01:52:30;5.53;;;1.58;;
66802;SDS011;53705;49.860;8.744;2023-02-28T01:54:58;6.40;;;1.48;;
66802;SDS011;53705;49.860;8.744;2023-02-28T01:57:28;4.68;;;1.63;;
66802;SDS011;53705;49.860;8.744;2023-02-28T01:59:57;4.28;;;1.55;;
66802;SDS011;53705;49.860;8.744;2023-02-28T02:02:25;3.40;;;1.33;;
66802;SDS011;53705;49.860;8.744;2023-02-28T02:04:53;5.18;;;1.27;;
66802;SDS011;53705;49.860;8.744;2023-02-28T02:07:21;3.83;;;1.33;;
66802;SDS011;53705;49.860;8.744;2023-02-28T02:09:56;2.75;;;1.27;;
66802;SDS011;53705;49.860;8.744;2023-02-28T02:12:27;3.92;;;1.70;;
66802;SDS011;53705;49.860;8.744;2023-02-28T02:15:00;5.88;;;1.60;;
66802;SDS011;53705;49.860;8.744;2023-02-28T02:17:31;4.03;;;2.25;;
66802;SDS011;53705;49.860;8.744;2023-02-28T02:20:28;4.68;;;1.73;;
66802;SDS011;53705;49.860;8.744;2023-02-28T02:26:06;4.00;;;1.73;;
66802;SDS011;53705;49.860;8.744;2023-02-28T02:28:52;4.47;;;0.95;;
66802;SDS011;53705;49.860;8.744;2023-02-28T02:31:51;3.53;;;1.00;;
66802;SDS011;53705;49.860;8.744;2023-02-28T02:34:31;3.58;;;1.58;;
66802;SDS011;53705;49.860;8.744;2023-02-28T02:37:08;3.63;;;1.90;;
66802;SDS011;53705;49.860;8.744;2023-02-28T02:39:40;3.83;;;1.63;;
66802;SDS011;53705;49.860;8.744;2023-02-28T02:44:42;3.90;;;1.60;;
66802;SDS011;53705;49.860;8.744;2023-02-28T02:47:11;4.78;;;2.22;;
66802;SDS011;53705;49.860;8.744;2023-02-28T02:49:43;3.97;;;1.83;;
66802;SDS011;53705;49.860;8.744;2023-02-28T02:52:13;5.28;;;1.67;;
66802;SDS011;53705;49.860;8.744;2023-02-28T02:54:41;3.78;;;2.05;;
66802;SDS011;53705;49.860;8.744;2023-02-28T02:57:11;5.38;;;1.85;;
66802;SDS011;53705;49.860;8.744;2023-02-28T02:59:40;4.47;;;2.25;;
66802;SDS011;53705;49.860;8.744;2023-02-28T03:02:08;5.75;;;2.03;;
66802;SDS011;53705;49.860;8.744;2023-02-28T03:04:40;6.78;;;2.17;;
66802;SDS011;53705;49.860;8.744;2023-02-28T03:07:10;4.25;;;1.88;;
66802;SDS011;53705;49.860;8.744;2023-02-28T03:09:37;3.70;;;1.80;;
66802;SDS011;53705;49.860;8.744;2023-02-28T03:12:06;6.07;;;2.35;;
66802;SDS011;53705;49.860;8.744;2023-02-28T03:14:40;4.60;;;1.70;;
66802;SDS011;53705;49.860;8.744;2023-02-28T03:17:18;7.80;;;2.15;;
66802;SDS011;53705;49.860;8.744;2023-02-28T03:19:58;5.15;;;2.50;;
66802;SDS011;53705;49.860;8.744;2023-02-28T03:22:44;5.53;;;1.98;;
66802;SDS011;53705;49.860;8.744;2023-02-28T03:25:17;4.80;;;2.55;;
66802;SDS011;53705;49.860;8.744;2023-02-28T03:27:49;4.13;;;1.85;;
66802;SDS011;53705;49.860;8.744;2023-02-28T03:30:22;5.43;;;2.03;;
66802;SDS011;53705;49.860;8.744;2023-02-28T03:32:52;6.55;;;2.10;;
66802;SDS011;53705;49.860;8.744;2023-02-28T03:35:24;4.57;;;2.03;;
66802;SDS011;53705;49.860;8.744;2023-02-28T03:37:53;5.20;;;1.77;;
66802;SDS011;53705;49.860;8.744;2023-02-28T03:40:24;5.85;;;2.72;;
66802;SDS011;53705;49.860;8.744;2023-02-28T03:42:54;6.45;;;2.40;;
66802;SDS011;53705;49.860;8.744;2023-02-28T03:45:23;5.55;;;2.47;;
66802;SDS011;53705;49.860;8.744;2023-02-28T03:47:53;5.18;;;1.67;;
66802;SDS011;53705;49.860;8.744;2023-02-28T03:50:21;5.85;;;2.42;;
66802;SDS011;53705;49.860;8.744;2023-02-28T03:52:53;9.10;;;2.53;;
66802;SDS011;53705;49.860;8.744;2023-02-28T03:55:26;6.40;;;2.85;;
66802;SDS011;53705;49.860;8.744;2023-02-28T03:57:56;6.82;;;2.53;;
66802;SDS011;53705;49.860;8.744;2023-02-28T04:00:27;7.38;;;2.45;;
66802;SDS011;53705;49.860;8.744;2023-02-28T04:02:56;6.38;;;2.72;;
66802;SDS011;53705;49.860;8.744;2023-02-28T04:05:24;7.13;;;2.33;;
66802;SDS011;53705;49.860;8.744;2023-02-28T04:07:51;8.52;;;2.50;;
66802;SDS011;53705;49.860;8.744;2023-02-28T04:10:19;6.25;;;2.55;;
66802;SDS011;53705;49.860;8.744;2023-02-28T04:12:46;5.55;;;2.65;;
66802;SDS011;53705;49.860;8.744;2023-02-28T04:15:12;6.78;;;2.67;;
66802;SDS011;53705;49.860;8.744;2023-02-28T04:17:39;5.45;;;2.22;;
66802;SDS011;53705;49.860;8.744;2023-02-28T04:20:06;6.55;;;2.55;;
66802;SDS011;53705;49.860;8.744;2023-02-28T04:22:37;6.15;;;2.70;;
66802;SDS011;53705;49.860;8.744;2023-02-28T04:25:04;5.95;;;2.60;;
66802;SDS011;53705;49.860;8.744;2023-02-28T04:27:31;11.48;;;2.83;;
66802;SDS011;53705;49.860;8.744;2023-02-28T04:29:58;6.07;;;2.47;;
66802;SDS011;53705;49.860;8.744;2023-02-28T04:32:25;10.43;;;2.67;;
66802;SDS011;53705;49.860;8.744;2023-02-28T04:34:51;7.47;;;3.17;;
66802;SDS011;53705;49.860;8.744;2023-02-28T04:37:18;5.47;;;2.17;;
66802;SDS011;53705;49.860;8.744;2023-02-28T04:39:46;7.05;;;2.83;;
66802;SDS011;53705;49.860;8.744;2023-02-28T04:42:12;6.18;;;1.95;;
66802;SDS011;53705;49.860;8.744;2023-02-28T04:44:39;7.38;;;3.20;;
66802;SDS011;53705;49.860;8.744;2023-02-28T04:47:06;5.90;;;2.60;;
66802;SDS011;53705;49.860;8.744;2023-02-28T04:49:33;6.85;;;2.72;;
66802;SDS011;53705;49.860;8.744;2023-02-28T04:51:59;6.47;;;2.60;;
66802;SDS011;53705;49.860;8.744;2023-02-28T04:54:26;6.88;;;3.33;;
66802;SDS011;53705;49.860;8.744;2023-02-28T04:56:54;7.35;;;2.83;;
66802;SDS011;53705;49.860;8.744;2023-02-28T04:59:21;8.45;;;2.38;;
66802;SDS011;53705;49.860;8.744;2023-02-28T05:01:48;5.63;;;3.00;;
66802;SDS011;53705;49.860;8.744;2023-02-28T05:04:15;5.60;;;2.75;;
66802;SDS011;53705;49.860;8.744;2023-02-28T05:06:42;5.38;;;2.15;;
66802;SDS011;53705;49.860;8.744;2023-02-28T05:09:09;5.90;;;2.25;;
66802;SDS011;53705;49.860;8.744;2023-02-28T05:11:37;6.00;;;2.63;;
66802;SDS011;53705;49.860;8.744;2023-02-28T05:14:06;7.53;;;2.97;;
66802;SDS011;53705;49.860;8.744;2023-02-28T05:16:35;8.95;;;3.83;;
66802;SDS011;53705;49.860;8.744;2023-02-28T05:19:02;7.35;;;3.42;;
66802;SDS011;53705;49.860;8.744;2023-02-28T05:21:29;9.07;;;4.00;;
66802;SDS011;53705;49.860;8.744;2023-02-28T05:23:58;9.98;;;3.25;;
66802;SDS011;53705;49.860;8.744;2023-02-28T05:26:26;9.45;;;3.92;;
66802;SDS011;53705;49.860;8.744;2023-02-28T05:31:22;8.70;;;4.00;;
66802;SDS011;53705;49.860;8.744;2023-02-28T05:33:48;8.75;;;4.20;;
66802;SDS011;53705;49.860;8.744;2023-02-28T05:36:15;7.85;;;4.38;;
66802;SDS011;53705;49.860;8.744;2023-02-28T05:38:42;8.63;;;4.57;;
66802;SDS011;53705;49.860;8.744;2023-02-28T05:41:09;8.23;;;4.13;;
66802;SDS011;53705;49.860;8.744;2023-02-28T05:43:36;8.95;;;3.20;;
66802;SDS011;53705;49.860;8.744;2023-02-28T05:48:33;8.32;;;4.05;;
66802;SDS011;53705;49.860;8.744;2023-02-28T05:51:02;9.32;;;4.40;;
66802;SDS011;53705;49.860;8.744;2023-02-28T05:53:31;12.77;;;5.68;;
66802;SDS011;53705;49.860;8.744;2023-02-28T05:55:58;8.77;;;5.00;;
66802;SDS011;53705;49.860;8.744;2023-02-28T05:58:25;12.18;;;5.32;;
66802;SDS011;53705;49.860;8.744;2023-02-28T06:00:56;9.80;;;5.13;;
66802;SDS011;53705;49.860;8.744;2023-02-28T06:05:50;8.98;;;5.28;;
66802;SDS011;53705;49.860;8.744;2023-02-28T06:08:17;8.85;;;3.97;;
66802;SDS011;53705;49.860;8.744;2023-02-28T06:10:44;10.05;;;4.85;;
66802;SDS011;53705;49.860;8.744;2023-02-28T06:13:11;10.82;;;4.85;;
66802;SDS011;53705;49.860;8.744;2023-02-28T06:15:37;7.90;;;4.05;;
66802;SDS011;53705;49.860;8.744;2023-02-28T06:18:04;8.30;;;4.03;;
66802;SDS011;53705;49.860;8.744;2023-02-28T06:20:31;9.23;;;3.60;;
66802;SDS011;53705;49.860;8.744;2023-02-28T06:22:59;6.85;;;4.03;;
66802;SDS011;53705;49.860;8.744;2023-02-28T06:25:26;7.53;;;3.55;;
66802;SDS011;53705;49.860;8.744;2023-02-28T06:27:54;9.05;;;3.75;;
66802;SDS011;53705;49.860;8.744;2023-02-28T06:30:21;6.97;;;3.95;;
66802;SDS011;53705;49.860;8.744;2023-02-28T06:32:50;8.10;;;4.07;;
66802;SDS011;53705;49.860;8.744;2023-02-28T06:35:17;8.70;;;3.80;;
66802;SDS011;53705;49.860;8.744;2023-02-28T06:37:43;8.70;;;3.10;;
66802;SDS011;53705;49.860;8.744;2023-02-28T06:40:12;7.28;;;3.65;;
66802;SDS011;53705;49.860;8.744;2023-02-28T06:42:40;12.07;;;4.60;;
66802;SDS011;53705;49.860;8.744;2023-02-28T06:45:06;6.07;;;3.58;;
66802;SDS011;53705;49.860;8.744;2023-02-28T06:47:35;7.68;;;3.63;;
66802;SDS011;53705;49.860;8.744;2023-02-28T06:50:02;8.38;;;4.05;;
66802;SDS011;53705;49.860;8.744;2023-02-28T06:52:30;10.20;;;3.50;;
66802;SDS011;53705;49.860;8.744;2023-02-28T06:54:56;7.85;;;3.55;;
66802;SDS011;53705;49.860;8.744;2023-02-28T06:57:28;8.15;;;3.03;;
66802;SDS011;53705;49.860;8.744;2023-02-28T06:59:57;8.35;;;4.25;;
66802;SDS011;53705;49.860;8.744;2023-02-28T07:02:24;9.85;;;3.85;;
66802;SDS011;53705;49.860;8.744;2023-02-28T07:04:51;7.13;;;4.57;;
66802;SDS011;53705;49.860;8.744;2023-02-28T07:07:17;6.72;;;3.95;;
66802;SDS011;53705;49.860;8.744;2023-02-28T07:09:44;7.30;;;4.20;;
66802;SDS011;53705;49.860;8.744;2023-02-28T07:12:11;8.02;;;4.35;;
66802;SDS011;53705;49.860;8.744;2023-02-28T07:14:39;7.43;;;2.88;;
66802;SDS011;53705;49.860;8.744;2023-02-28T07:17:06;6.35;;;3.20;;
66802;SDS011;53705;49.860;8.744;2023-02-28T07:19:33;6.57;;;2.53;;
66802;SDS011;53705;49.860;8.744;2023-02-28T07:22:00;7.03;;;2.75;;
66802;SDS011;53705;49.860;8.744;2023-02-28T07:26:54;5.55;;;2.15;;
66802;SDS011;53705;49.860;8.744;2023-02-28T07:29:21;8.75;;;3.17;;
66802;SDS011;53705;49.860;8.744;2023-02-28T07:31:49;6.30;;;2.90;;
66802;SDS011;53705;49.860;8.744;2023-02-28T07:34:18;7.50;;;2.78;;
66802;SDS011;53705;49.860;8.744;2023-02-28T07:36:44;5.95;;;2.45;;
66802;SDS011;53705;49.860;8.744;2023-02-28T07:39:11;6.70;;;2.20;;
66802;SDS011;53705;49.860;8.744;2023-02-28T07:41:38;6.28;;;2.97;;
66802;SDS011;53705;49.860;8.744;2023-02-28T07:44:08;8.27;;;2.72;;
66802;SDS011;53705;49.860;8.744;2023-02-28T07:46:35;5.82;;;2.50;;
66802;SDS011;53705;49.860;8.744;2023-02-28T07:49:04;6.60;;;2.55;;
66802;SDS011;53705;49.860;8.744;2023-02-28T07:51:31;9.82;;;2.72;;
66802;SDS011;53705;49.860;8.744;2023-02-28T07:53:58;6.15;;;2.75;;
66802;SDS011;53705;49.860;8.744;2023-02-28T07:56:25;6.28;;;2.22;;
66802;SDS011;53705;49.860;8.744;2023-02-28T07:58:51;6.28;;;2.70;;
66802;SDS011;53705;49.860;8.744;2023-02-28T08:01:18;7.00;;;2.50;;
66802;SDS011;53705;49.860;8.744;2023-02-28T08:03:45;6.15;;;2.50;;
66802;SDS011;53705;49.860;8.744;2023-02-28T08:06:16;6.53;;;2.95;;
66802;SDS011;53705;49.860;8.744;2023-02-28T08:08:44;7.65;;;3.45;;
66802;SDS011;53705;49.860;8.744;2023-02-28T08:11:11;5.90;;;2.08;;
66802;SDS011;53705;49.860;8.744;2023-02-28T08:13:38;5.22;;;2.60;;
66802;SDS011;53705;49.860;8.744;2023-02-28T08:16:05;5.70;;;2.33;;
66802;SDS011;53705;49.860;8.744;2023-02-28T08:18:32;4.05;;;1.52;;
66802;SDS011;53705;49.860;8.744;2023-02-28T08:20:59;4.68;;;2.10;;
66802;SDS011;53705;49.860;8.744;2023-02-28T08:23:27;6.28;;;3.13;;
66802;SDS011;53705;49.860;8.744;2023-02-28T08:25:54;4.63;;;1.75;;
66802;SDS011;53705;49.860;8.744;2023-02-28T08:28:21;5.57;;;3.10;;
66802;SDS011;53705;49.860;8.744;2023-02-28T08:30:48;5.97;;;2.92;;
66802;SDS011;53705;49.860;8.744;2023-02-28T08:33:15;7.10;;;2.38;;
66802;SDS011;53705;49.860;8.744;2023-02-28T08:35:41;5.85;;;2.05;;
66802;SDS011;53705;49.860;8.744;2023-02-28T08:38:08;7.68;;;2.47;;
66802;SDS011;53705;49.860;8.744;2023-02-28T08:40:37;5.32;;;2.38;;
66802;SDS011;53705;49.860;8.744;2023-02-28T08:43:03;5.50;;;2.20;;
66802;SDS011;53705;49.860;8.744;2023-02-28T08:45:30;5.00;;;2.42;;
66802;SDS011;53705;49.860;8.744;2023-02-28T08:47:57;7.03;;;3.53;;
66802;SDS011;53705;49.860;8.744;2023-02-28T08:50:24;5.72;;;2.85;;
66802;SDS011;53705;49.860;8.744;2023-02-28T08:52:51;5.65;;;3.08;;
66802;SDS011;53705;49.860;8.744;2023-02-28T08:55:18;7.80;;;3.95;;
66802;SDS011;53705;49.860;8.744;2023-02-28T08:57:45;7.10;;;3.15;;
66802;SDS011;53705;49.860;8.744;2023-02-28T09:00:13;6.50;;;3.42;;
66802;SDS011;53705;49.860;8.744;2023-02-28T09:02:40;8.05;;;3.58;;
66802;SDS011;53705;49.860;8.744;2023-02-28T09:05:08;8.18;;;4.13;;
66802;SDS011;53705;49.860;8.744;2023-02-28T09:10:02;6.28;;;2.78;;
66802;SDS011;53705;49.860;8.744;2023-02-28T09:12:32;9.23;;;3.40;;
66802;SDS011;53705;49.860;8.744;2023-02-28T09:15:01;7.85;;;4.05;;
66802;SDS011;53705;49.860;8.744;2023-02-28T09:17:28;7.55;;;3.38;;
66802;SDS011;53705;49.860;8.744;2023-02-28T09:19:55;8.60;;;3.80;;
66802;SDS011;53705;49.860;8.744;2023-02-28T09:22:23;8.50;;;3.72;;
66802;SDS011;53705;49.860;8.744;2023-02-28T09:24:50;8.20;;;4.32;;
66802;SDS011;53705;49.860;8.744;2023-02-28T09:27:17;9.82;;;4.20;;
66802;SDS011;53705;49.860;8.744;2023-02-28T09:29:44;8.00;;;4.10;;
66802;SDS011;53705;49.860;8.744;2023-02-28T09:32:12;8.20;;;3.70;;
66802;SDS011;53705;49.860;8.744;2023-02-28T09:34:39;7.07;;;3.85;;
66802;SDS011;53705;49.860;8.744;2023-02-28T09:37:05;6.97;;;4.05;;
66802;SDS011;53705;49.860;8.744;2023-02-28T09:39:32;9.82;;;4.78;;
66802;SDS011;53705;49.860;8.744;2023-02-28T09:41:59;7.65;;;4.85;;
66802;SDS011;53705;49.860;8.744;2023-02-28T09:44:30;8.63;;;3.95;;
66802;SDS011;53705;49.860;8.744;2023-02-28T09:46:59;8.05;;;4.15;;
66802;SDS011;53705;49.860;8.744;2023-02-28T09:49:33;7.90;;;5.00;;
66802;SDS011;53705;49.860;8.744;2023-02-28T09:52:04;8.07;;;3.47;;
66802;SDS011;53705;49.860;8.744;2023-02-28T09:54:34;9.57;;;3.65;;
66802;SDS011;53705;49.860;8.744;2023-02-28T09:57:04;7.35;;;3.65;;
66802;SDS011;53705;49.860;8.744;2023-02-28T09:59:39;8.60;;;3.97;;
66802;SDS011;53705;49.860;8.744;2023-02-28T10:02:19;8.50;;;3.83;;
66802;SDS011;53705;49.860;8.744;2023-02-28T10:05:03;9.20;;;4.63;;
66802;SDS011;53705;49.860;8.744;2023-02-28T10:07:38;9.23;;;4.50;;
66802;SDS011;53705;49.860;8.744;2023-02-28T10:10:16;10.45;;;4.40;;
66802;SDS011;53705;49.860;8.744;2023-02-28T10:12:46;9.30;;;4.05;;
66802;SDS011;53705;49.860;8.744;2023-02-28T10:15:13;8.20;;;4.57;;
66802;SDS011;53705;49.860;8.744;2023-02-28T10:17:41;9.30;;;4.72;;
66802;SDS011;53705;49.860;8.744;2023-02-28T10:20:11;8.48;;;4.78;;
66802;SDS011;53705;49.860;8.744;2023-02-28T10:22:41;7.88;;;4.43;;
66802;SDS011;53705;49.860;8.744;2023-02-28T10:25:18;6.18;;;3.75;;
66802;SDS011;53705;49.860;8.744;2023-02-28T10:27:46;9.52;;;3.90;;
66802;SDS011;53705;49.860;8.744;2023-02-28T10:30:13;8.60;;;3.88;;
66802;SDS011;53705;49.860;8.744;2023-02-28T10:32:41;7.45;;;3.35;;
66802;SDS011;53705;49.860;8.744;2023-02-28T10:35:16;8.98;;;3.90;;
66802;SDS011;53705;49.860;8.744;2023-02-28T10:37:45;9.00;;;4.15;;
66802;SDS011;53705;49.860;8.744;2023-02-28T10:40:25;10.00;;;4.15;;
66802;SDS011;53705;49.860;8.744;2023-02-28T10:42:55;7.50;;;3.75;;
66802;SDS011;53705;49.860;8.744;2023-02-28T10:45:22;11.90;;;5.85;;
66802;SDS011;53705;49.860;8.744;2023-02-28T10:47:51;8.88;;;4.03;;
66802;SDS011;53705;49.860;8.744;2023-02-28T10:50:29;7.18;;;3.88;;
66802;SDS011;53705;49.860;8.744;2023-02-28T10:53:08;8.93;;;3.67;;
66802;SDS011;53705;49.860;8.744;2023-02-28T10:56:14;7.22;;;3.92;;
66802;SDS011;53705;49.860;8.744;2023-02-28T10:58:50;8.07;;;3.72;;
66802;SDS011;53705;49.860;8.744;2023-02-28T11:01:20;9.35;;;3.90;;
66802;SDS011;53705;49.860;8.744;2023-02-28T11:03:47;6.85;;;3.72;;
66802;SDS011;53705;49.860;8.744;2023-02-28T11:08:44;7.95;;;4.30;;
66802;SDS011;53705;49.860;8.744;2023-02-28T11:11:13;7.97;;;3.35;;
66802;SDS011;53705;49.860;8.744;2023-02-28T11:13:40;8.20;;;4.28;;
66802;SDS011;53705;49.860;8.744;2023-02-28T11:16:09;9.27;;;3.83;;
66802;SDS011;53705;49.860;8.744;2023-02-28T11:18:38;10.60;;;4.32;;
66802;SDS011;53705;49.860;8.744;2023-02-28T11:21:07;8.13;;;4.35;;
66802;SDS011;53705;49.860;8.744;2023-02-28T11:23:37;8.88;;;4.10;;
66802;SDS011;53705;49.860;8.744;2023-02-28T11:26:07;10.57;;;4.13;;
66802;SDS011;53705;49.860;8.744;2023-02-28T11:28:36;8.65;;;3.95;;
66802;SDS011;53705;49.860;8.744;2023-02-28T11:31:05;8.10;;;4.20;;
66802;SDS011;53705;49.860;8.744;2023-02-28T11:33:44;7.78;;;4.18;;
66802;SDS011;53705;49.860;8.744;2023-02-28T11:36:14;8.85;;;4.05;;
66802;SDS011;53705;49.860;8.744;2023-02-28T11:38:45;7.43;;;3.72;;
66802;SDS011;53705;49.860;8.744;2023-02-28T11:41:16;10.20;;;5.07;;
66802;SDS011;53705;49.860;8.744;2023-02-28T11:43:57;8.20;;;4.03;;
66802;SDS011;53705;49.860;8.744;2023-02-28T11:46:30;8.35;;;3.83;;
66802;SDS011;53705;49.860;8.744;2023-02-28T11:49:02;13.52;;;6.13;;
66802;SDS011;53705;49.860;8.744;2023-02-28T11:51:40;8.70;;;4.28;;
66802;SDS011;53705;49.860;8.744;2023-02-28T11:54:21;9.70;;;4.25;;
66802;SDS011;53705;49.860;8.744;2023-02-28T11:56:52;10.20;;;4.25;;
66802;SDS011;53705;49.860;8.744;2023-02-28T11:59:27;8.30;;;3.80;;
66802;SDS011;53705;49.860;8.744;2023-02-28T12:02:06;9.57;;;5.00;;
66802;SDS011;53705;49.860;8.744;2023-02-28T12:04:47;8.75;;;4.90;;
66802;SDS011;53705;49.860;8.744;2023-02-28T12:07:18;7.45;;;4.03;;
66802;SDS011;53705;49.860;8.744;2023-02-28T12:09:55;7.88;;;4.47;;
66802;SDS011;53705;49.860;8.744;2023-02-28T12:12:29;8.30;;;3.92;;
66802;SDS011;53705;49.860;8.744;2023-02-28T12:21:09;10.38;;;4.35;;
66802;SDS011;53705;49.860;8.744;2023-02-28T12:23:57;9.98;;;4.38;;
66802;SDS011;53705;49.860;8.744;2023-02-28T12:26:38;10.10;;;4.88;;
66802;SDS011;53705;49.860;8.744;2023-02-28T12:29:09;7.95;;;4.43;;
66802;SDS011;53705;49.860;8.744;2023-02-28T12:31:40;10.45;;;4.53;;
66802;SDS011;53705;49.860;8.744;2023-02-28T12:34:10;9.13;;;5.25;;
66802;SDS011;53705;49.860;8.744;2023-02-28T12:36:38;10.90;;;4.07;;
66802;SDS011;53705;49.860;8.744;2023-02-28T12:39:07;10.85;;;5.57;;
66802;SDS011;53705;49.860;8.744;2023-02-28T12:41:39;10.70;;;4.70;;
66802;SDS011;53705;49.860;8.744;2023-02-28T12:44:09;8.55;;;4.90;;
66802;SDS011;53705;49.860;8.744;2023-02-28T12:46:38;8.55;;;4.32;;
66802;SDS011;53705;49.860;8.744;2023-02-28T12:49:08;9.80;;;4.10;;
66802;SDS011;53705;49.860;8.744;2023-02-28T12:51:37;8.45;;;3.70;;
66802;SDS011;53705;49.860;8.744;2023-02-28T12:54:07;10.52;;;4.43;;
66802;SDS011;53705;49.860;8.744;2023-02-28T12:56:43;9.50;;;4.88;;
66802;SDS011;53705;49.860;8.744;2023-02-28T12:59:15;8.65;;;4.57;;
66802;SDS011;53705;49.860;8.744;2023-02-28T13:01:56;9.45;;;4.20;;
66802;SDS011;53705;49.860;8.744;2023-02-28T13:04:40;9.93;;;4.63;;
66802;SDS011;53705;49.860;8.744;2023-02-28T13:07:16;8.93;;;4.85;;
66802;SDS011;53705;49.860;8.744;2023-02-28T13:10:06;9.32;;;4.70;;
66802;SDS011;53705;49.860;8.744;2023-02-28T13:12:35;9.38;;;4.82;;
66802;SDS011;53705;49.860;8.744;2023-02-28T13:15:04;10.60;;;5.28;;
66802;SDS011;53705;49.860;8.744;2023-02-28T13:17:44;9.85;;;4.82;;
66802;SDS011;53705;49.860;8.744;2023-02-28T13:20:15;10.82;;;4.95;;
66802;SDS011;53705;49.860;8.744;2023-02-28T13:22:44;10.32;;;5.53;;
66802;SDS011;53705;49.860;8.744;2023-02-28T13:34:35;12.43;;;6.10;;
66802;SDS011;53705;49.860;8.744;2023-02-28T13:40:06;10.88;;;5.20;;
66802;SDS011;53705;49.860;8.744;2023-02-28T13:42:49;9.27;;;4.80;;
66802;SDS011;53705;49.860;8.744;2023-02-28T13:45:24;8.98;;;4.57;;
66802;SDS011;53705;49.860;8.744;2023-02-28T13:47:56;8.82;;;5.00;;
66802;SDS011;53705;49.860;8.744;2023-02-28T13:50:31;9.57;;;4.53;;
66802;SDS011;53705;49.860;8.744;2023-02-28T13:55:51;10.85;;;5.30;;
66802;SDS011;53705;49.860;8.744;2023-02-28T13:58:26;8.65;;;4.35;;
66802;SDS011;53705;49.860;8.744;2023-02-28T14:01:05;9.13;;;4.13;;
66802;SDS011;53705;49.860;8.744;2023-02-28T14:03:42;7.75;;;4.43;;
66802;SDS011;53705;49.860;8.744;2023-02-28T14:06:18;9.43;;;4.50;;
66802;SDS011;53705;49.860;8.744;2023-02-28T14:08:52;8.93;;;3.83;;
66802;SDS011;53705;49.860;8.744;2023-02-28T14:11:26;8.05;;;4.22;;
66802;SDS011;53705;49.860;8.744;2023-02-28T14:13:55;9.32;;;4.68;;
66802;SDS011;53705;49.860;8.744;2023-02-28T14:16:22;10.27;;;4.45;;
66802;SDS011;53705;49.860;8.744;2023-02-28T14:18:55;8.23;;;3.83;;
66802;SDS011;53705;49.860;8.744;2023-02-28T14:21:25;9.80;;;4.35;;
66802;SDS011;53705;49.860;8.744;2023-02-28T14:30:14;8.48;;;4.28;;
66802;SDS011;53705;49.860;8.744;2023-02-28T14:32:51;8.65;;;4.22;;
66802;SDS011;53705;49.860;8.744;2023-02-28T14:35:31;10.30;;;3.97;;
66802;SDS011;53705;49.860;8.744;2023-02-28T14:38:08;10.48;;;5.35;;
66802;SDS011;53705;49.860;8.744;2023-02-28T14:40:40;9.52;;;4.55;;
66802;SDS011;53705;49.860;8.744;2023-02-28T14:43:18;13.82;;;4.53;;
66802;SDS011;53705;49.860;8.744;2023-02-28T14:48:15;9.55;;;5.32;;
66802;SDS011;53705;49.860;8.744;2023-02-28T14:50:42;9.82;;;4.88;;
66802;SDS011;53705;49.860;8.744;2023-02-28T14:53:18;12.68;;;4.72;;
66802;SDS011;53705;49.860;8.744;2023-02-28T14:55:46;9.52;;;5.05;;
66802;SDS011;53705;49.860;8.744;2023-02-28T14:58:19;9.55;;;4.47;;
66802;SDS011;53705;49.860;8.744;2023-02-28T15:00:49;8.73;;;4.75;;
66802;SDS011;53705;49.860;8.744;2023-02-28T15:03:18;9.77;;;3.95;;
66802;SDS011;53705;49.860;8.744;2023-02-28T15:05:51;8.90;;;4.25;;
66802;SDS011;53705;49.860;8.744;2023-02-28T15:08:20;9.07;;;4.57;;
66802;SDS011;53705;49.860;8.744;2023-02-28T15:10:50;7.43;;;3.90;;
66802;SDS011;53705;49.860;8.744;2023-02-28T15:13:18;8.13;;;4.18;;
66802;SDS011;53705;49.860;8.744;2023-02-28T15:15:46;8.27;;;4.00;;
66802;SDS011;53705;49.860;8.744;2023-02-28T15:18:24;8.25;;;4.47;;
66802;SDS011;53705;49.860;8.744;2023-02-28T15:20:54;8.90;;;3.78;;
66802;SDS011;53705;49.860;8.744;2023-02-28T15:23:23;7.85;;;3.53;;
66802;SDS011;53705;49.860;8.744;2023-02-28T15:25:50;9.48;;;4.47;;
66802;SDS011;53705;49.860;8.744;2023-02-28T15:28:18;7.50;;;4.05;;
66802;SDS011;53705;49.860;8.744;2023-02-28T15:30:53;8.27;;;4.22;;
66802;SDS011;53705;49.860;8.744;2023-02-28T15:33:23;9.90;;;4.55;;
66802;SDS011;53705;49.860;8.744;2023-02-28T15:35:50;9.30;;;4.68;;
66802;SDS011;53705;49.860;8.744;2023-02-28T15:38:18;8.80;;;4.13;;
66802;SDS011;53705;49.860;8.744;2023-02-28T15:40:50;10.50;;;5.10;;
66802;SDS011;53705;49.860;8.744;2023-02-28T15:43:23;8.00;;;5.03;;
66802;SDS011;53705;49.860;8.744;2023-02-28T15:45:52;9.85;;;5.00;;
66802;SDS011;53705;49.860;8.744;2023-02-28T15:48:23;8.18;;;4.35;;
66802;SDS011;53705;49.860;8.744;2023-02-28T15:50:51;9.20;;;4.53;;
66802;SDS011;53705;49.860;8.744;2023-02-28T15:53:21;8.85;;;5.00;;
66802;SDS011;53705;49.860;8.744;2023-02-28T15:55:54;7.05;;;4.07;;
66802;SDS011;53705;49.860;8.744;2023-02-28T15:58:23;7.63;;;3.95;;